Time;durP1;ratioP1;P1;durP2;ratioP2;P2;SDS_P1;SDS_P2;PMS_P1;PMS_P2;Temp;Humidity;BMP_temperature;BMP_pressure;BME280_temperature;BME280_humidity;BME280_pressure;Samples;Min_cycle;Max_cycle;Signal;HPM_P1;HPM_P2
2022/12/04 00:00:35;;;;;;;25.87;12.70;;;4.40;99.90;;;1.96;100.00;100843.84;10565455;27;20055;-81
2022/12/04 00:05:38;;;;;;;21.90;11.27;;;4.40;99.90;;;1.83;100.00;100855.13;10624209;27;20059;-81
2022/12/04 00:10:42;;;;;;;25.07;12.53;;;4.20;99.90;;;1.67;100.00;100849.13;10598126;27;20055;-81
2022/12/04 00:15:45;;;;;;;26.63;12.53;;;4.10;99.90;;;1.52;100.00;100842.25;10598880;27;20066;-80
2022/12/04 00:20:49;;;;;;;24.67;12.63;;;4.00;99.90;;;1.40;100.00;100838.59;10597184;27;20141;-81
2022/12/04 00:25:58;;;;;;;31.83;15.00;;;3.80;99.90;;;1.29;100.00;100851.50;10597025;27;20105;-81
2022/12/04 00:31:06;;;;;;;27.80;13.00;;;3.70;99.90;;;1.23;100.00;100854.47;10597319;27;20056;-80
2022/12/04 00:36:13;;;;;;;27.50;13.67;;;3.60;99.90;;;1.26;100.00;100859.50;10574807;27;20109;-80
2022/12/04 00:41:20;;;;;;;31.63;14.13;;;3.70;99.90;;;1.26;100.00;100860.38;10616294;27;20059;-80
2022/12/04 00:46:24;;;;;;;33.03;14.57;;;3.70;99.90;;;1.25;100.00;100863.06;10630806;27;20411;-79
2022/12/04 00:51:27;;;;;;;32.40;14.77;;;3.60;99.90;;;1.21;100.00;100853.75;10611727;27;20063;-80
2022/12/04 00:56:31;;;;;;;32.57;14.70;;;3.60;99.90;;;1.20;100.00;100845.03;10595887;27;20062;-79
2022/12/04 01:01:33;;;;;;;28.70;14.03;;;3.60;99.90;;;1.20;100.00;100850.28;10613871;27;20060;-79
2022/12/04 01:06:37;;;;;;;35.77;15.90;;;3.60;99.90;;;1.17;100.00;100842.59;10595130;27;20060;-79
2022/12/04 01:11:40;;;;;;;30.80;14.33;;;3.60;99.90;;;1.12;100.00;100836.78;10628980;27;20449;-80
2022/12/04 01:16:43;;;;;;;34.73;16.63;;;3.50;99.90;;;1.07;100.00;100844.06;10612449;27;20051;-79
2022/12/04 01:21:46;;;;;;;33.07;15.60;;;3.50;99.90;;;1.03;100.00;100845.19;10612020;27;20067;-80
2022/12/04 01:26:49;;;;;;;23.10;12.10;;;3.40;99.90;;;1.03;100.00;100837.34;10626287;27;20495;-80
2022/12/04 01:31:52;;;;;;;32.00;15.40;;;3.40;99.90;;;1.08;100.00;100843.16;10593519;27;20055;-80
2022/12/04 01:36:55;;;;;;;38.23;16.37;;;3.50;99.90;;;1.13;100.00;100837.63;10603677;27;20109;-80
2022/12/04 01:41:58;;;;;;;30.27;15.50;;;3.50;99.90;;;1.21;100.00;100845.88;10570144;27;20064;-80
2022/12/04 01:47:01;;;;;;;28.33;13.83;;;3.60;99.90;;;1.28;100.00;100832.31;10628338;27;20716;-80
2022/12/04 01:52:08;;;;;;;37.80;17.63;;;3.70;99.90;;;1.38;100.00;100840.47;10586326;27;20105;-79
2022/12/04 01:57:22;;;;;;;38.13;17.10;;;3.80;99.90;;;1.53;100.00;100847.38;10606606;27;20515;-80
2022/12/04 02:02:40;;;;;;;35.87;15.53;;;3.90;99.90;;;1.67;100.00;100857.00;10605258;27;20055;-80
2022/12/04 02:07:46;;;;;;;41.77;18.40;;;4.10;99.90;;;1.82;100.00;100847.34;10584285;27;20304;-80
2022/12/04 02:13:19;;;;;;;36.60;16.77;;;4.10;99.90;;;1.97;100.00;100837.66;10612555;27;20059;-80
2022/12/04 02:18:31;;;;;;;28.73;14.93;;;4.30;99.90;;;2.11;100.00;100829.78;10610688;27;20104;-80
2022/12/04 02:24:19;;;;;;;36.90;16.63;;;4.40;99.90;;;2.23;100.00;100826.38;10611200;27;20089;-80
2022/12/04 02:29:59;;;;;;;30.97;14.63;;;4.50;99.90;;;2.29;100.00;100831.22;10611241;27;20431;-80
2022/12/04 02:35:23;;;;;;;35.57;15.90;;;4.60;99.90;;;2.32;100.00;100835.41;10624989;27;20083;-80
2022/12/04 02:40:37;;;;;;;27.80;15.17;;;4.60;99.90;;;2.33;100.00;100822.19;10604959;27;20059;-80
2022/12/04 02:46:10;;;;;;;30.57;14.77;;;4.70;99.90;;;2.37;100.00;100821.06;10621813;27;20059;-80
2022/12/04 02:51:17;;;;;;;32.83;15.43;;;4.70;99.90;;;2.41;100.00;100819.09;10588812;27;20142;-79
2022/12/04 02:56:28;;;;;;;38.43;17.57;;;4.70;99.90;;;2.49;100.00;100821.19;10550766;27;20144;-79
2022/12/04 03:01:37;;;;;;;30.27;15.43;;;4.80;99.90;;;2.55;100.00;100828.66;10587074;27;20060;-79
2022/12/04 03:06:46;;;;;;;29.50;14.73;;;4.90;99.90;;;2.59;100.00;100830.16;10583217;27;20083;-79
2022/12/04 03:11:58;;;;;;;30.60;15.20;;;4.90;99.90;;;2.60;100.00;100827.44;10593078;27;20059;-79
2022/12/04 03:17:09;;;;;;;36.00;16.50;;;4.90;99.90;;;2.59;100.00;100828.38;10586020;27;20052;-80
2022/12/04 03:22:17;;;;;;;34.93;15.83;;;4.90;99.90;;;2.56;100.00;100822.47;10601837;27;20055;-81
2022/12/04 03:27:44;;;;;;;34.23;16.10;;;4.90;99.90;;;2.46;100.00;100822.25;10601622;27;20056;-81
2022/12/04 03:33:15;;;;;;;31.13;15.03;;;4.80;99.90;;;2.32;100.00;100804.78;10571081;27;20140;-80
2022/12/04 03:38:59;;;;;;;27.33;14.47;;;4.70;99.90;;;2.18;100.00;100807.47;10571922;27;20056;-79
2022/12/04 03:44:15;;;;;;;27.47;13.40;;;4.60;99.90;;;2.04;100.00;100815.38;10509104;27;20060;-80
2022/12/04 03:49:37;;;;;;;31.80;14.53;;;4.40;99.90;;;1.98;100.00;100821.00;10624235;27;20091;-80
2022/12/04 03:54:49;;;;;;;29.20;14.17;;;4.40;99.90;;;1.95;100.00;100827.28;10598617;27;20523;-80
2022/12/04 04:00:04;;;;;;;;;;;4.30;99.90;;;1.94;100.00;100827.41;10582807;27;20527;-80
2022/12/04 04:05:12;;;;;;;30.63;15.03;;;4.30;99.90;;;1.90;100.00;100831.13;10614553;27;19928;-80
2022/12/04 04:10:22;;;;;;;33.07;14.73;;;4.30;99.90;;;1.85;100.00;100821.78;10595459;27;20063;-80
2022/12/04 04:26:24;;;;;;;31.33;15.70;;;4.30;99.90;;;2.02;100.00;100825.13;10621889;27;20078;-80
2022/12/04 04:31:48;;;;;;;29.97;14.03;;;4.30;99.90;;;2.05;100.00;100822.31;10571835;27;20083;-80
2022/12/04 04:37:48;;;;;;;33.47;16.33;;;4.40;99.90;;;2.07;100.00;100825.66;10606640;27;20052;-80
2022/12/04 04:43:09;;;;;;;29.13;13.67;;;4.40;99.90;;;2.07;100.00;100838.78;10567147;27;20457;-80
2022/12/04 04:48:31;;;;;;;33.93;17.47;;;4.40;99.90;;;2.09;100.00;100842.13;10589375;27;20328;-80
2022/12/04 04:53:56;;;;;;;39.97;18.35;;;4.40;99.90;;;2.12;100.00;100836.72;10609558;27;20488;-80
2022/12/04 04:58:59;;;;;;;33.03;15.97;;;4.50;99.90;;;2.17;100.00;100829.38;10582067;27;20059;-79
2022/12/04 05:04:05;;;;;;;40.70;18.07;;;4.50;99.90;;;2.20;100.00;100826.56;10609134;27;20060;-80
2022/12/04 05:09:08;;;;;;;35.13;17.47;;;4.60;99.90;;;2.25;100.00;100842.00;10610559;27;20074;-80
2022/12/04 05:14:10;;;;;;;47.83;21.20;;;4.60;99.90;;;2.29;100.00;100838.25;10588118;27;20055;-79
2022/12/04 05:24:35;;;;;;;34.33;16.20;;;4.60;99.90;;;2.34;100.00;100826.53;10572489;28;20060;-79
2022/12/04 05:29:38;;;;;;;45.37;19.53;;;4.70;99.90;;;2.38;100.00;100827.97;10565260;27;20051;-80
2022/12/04 05:34:41;;;;;;;36.00;16.70;;;4.70;99.90;;;2.39;100.00;100824.41;10609922;27;20059;-80
2022/12/04 05:39:45;;;;;;;28.87;13.10;;;4.80;99.90;;;2.39;100.00;100823.56;10625714;27;20060;-80
2022/12/04 05:44:49;;;;;;;28.00;14.50;;;4.70;99.90;;;2.39;100.00;100831.44;10608320;27;20062;-80
2022/12/04 05:49:52;;;;;;;22.23;12.20;;;4.70;99.90;;;2.41;100.00;100824.34;10592845;27;20063;-80
2022/12/04 05:54:55;;;;;;;25.00;13.38;;;4.70;99.90;;;2.39;100.00;100829.66;10570614;27;1151106;-80
2022/12/04 05:59:58;;;;;;;36.47;18.77;;;4.80;99.90;;;2.38;100.00;100829.78;10614288;27;20087;-80
2022/12/04 06:05:01;;;;;;;43.37;18.37;;;4.80;99.90;;;2.36;100.00;100848.25;10611247;27;20063;-80
2022/12/04 06:10:06;;;;;;;39.60;17.87;;;4.70;99.90;;;2.34;100.00;100834.41;10607875;27;20125;-80
2022/12/04 06:15:09;;;;;;;40.33;18.30;;;4.70;99.90;;;2.35;100.00;100843.94;10577596;27;20530;-79
2022/12/04 06:20:13;;;;;;;39.97;17.90;;;4.70;99.90;;;2.35;100.00;100846.56;10589811;27;20105;-80
2022/12/04 06:25:16;;;;;;;42.23;18.67;;;4.70;99.90;;;2.34;100.00;100844.88;10594471;27;20067;-80
2022/12/04 06:30:19;;;;;;;37.70;18.13;;;4.70;99.90;;;2.34;100.00;100849.25;10610311;27;20081;-80
2022/12/04 06:35:22;;;;;;;37.43;18.43;;;4.70;99.90;;;2.32;100.00;100848.53;10584409;27;20063;-80
2022/12/04 06:40:25;;;;;;;41.87;18.93;;;4.60;99.90;;;2.35;100.00;100846.56;10583346;27;20095;-79
2022/12/04 06:45:28;;;;;;;43.37;19.33;;;4.60;99.90;;;2.41;100.00;100835.66;10608648;27;20064;-81
2022/12/04 06:50:31;;;;;;;36.93;18.27;;;4.60;99.90;;;2.47;100.00;100858.03;10615717;27;20144;-81
2022/12/04 06:55:34;;;;;;;53.20;21.80;;;4.70;99.90;;;2.49;100.00;100843.03;10608465;27;20531;-81
2022/12/04 07:00:37;;;;;;;43.63;19.87;;;4.70;99.90;;;2.54;100.00;100837.50;10581217;27;20085;-82
2022/12/04 07:05:40;;;;;;;46.23;19.83;;;4.70;99.90;;;2.58;100.00;100838.94;10576398;27;20058;-81
2022/12/04 07:10:43;;;;;;;39.87;19.60;;;4.80;99.90;;;2.59;100.00;100836.25;10607773;27;20059;-82
2022/12/04 07:15:46;;;;;;;47.10;22.23;;;4.80;99.90;;;2.58;100.00;100846.81;10581689;27;20056;-81
2022/12/04 07:20:49;;;;;;;50.47;22.00;;;4.80;99.90;;;2.57;100.00;100845.97;10590153;27;20064;-79
2022/12/04 07:25:52;;;;;;;38.37;17.43;;;4.70;99.90;;;2.67;100.00;100846.22;10572267;27;20062;-78
2022/12/04 07:30:55;;;;;;;50.97;22.43;;;4.80;99.90;;;2.84;100.00;100853.81;10579309;27;20056;-79
2022/12/04 07:36:01;;;;;;;37.17;19.53;;;4.80;99.90;;;3.02;100.00;100846.50;10602920;27;20051;-81
2022/12/04 07:41:05;;;;;;;40.70;19.10;;;5.00;99.90;;;3.23;100.00;100846.81;10593730;27;20067;-80
2022/12/04 07:46:16;;;;;;;34.97;17.13;;;5.10;99.90;;;3.53;100.00;100845.66;10608254;27;20063;-84
2022/12/04 07:51:22;;;;;;;35.88;18.25;;;5.30;99.90;;;3.89;100.00;100845.69;10614365;27;20407;-81
2022/12/04 07:56:25;;;;;;;38.17;19.53;;;5.60;99.90;;;4.18;100.00;100848.03;10580520;27;20059;-81
2022/12/04 08:01:29;;;;;;;32.87;18.37;;;5.90;99.90;;;4.50;100.00;100841.25;10585337;27;20052;-81
2022/12/04 08:06:34;;;;;;;40.07;19.27;;;6.10;99.90;;;4.86;100.00;100844.75;10606847;27;20407;-82
2022/12/04 08:11:37;;;;;;;30.30;15.77;;;6.50;99.90;;;5.16;100.00;100843.34;10575723;27;20082;-81
2022/12/04 08:16:40;;;;;;;26.87;14.67;;;6.80;99.90;;;5.33;100.00;100842.91;10590377;27;20536;-81
2022/12/04 08:21:43;;;;;;;26.73;14.60;;;7.00;99.90;;;5.20;100.00;100856.19;10615389;27;20060;-81
2022/12/04 08:26:46;;;;;;;25.13;12.73;;;7.00;99.90;;;5.02;100.00;100853.16;10597441;27;20056;-81
2022/12/04 08:31:49;;;;;;;31.87;16.17;;;6.90;99.90;;;4.94;100.00;100844.16;10581630;27;20415;-81
2022/12/04 08:36:52;;;;;;;40.40;17.07;;;6.90;99.90;;;4.88;100.00;100829.66;10581825;27;20098;-81
2022/12/04 08:41:55;;;;;;;34.97;17.57;;;6.90;99.90;;;4.84;100.00;100822.94;10579334;27;20052;-81
2022/12/04 08:46:59;;;;;;;29.03;14.60;;;6.90;99.90;;;4.89;100.00;100826.06;10572466;27;20086;-81
2022/12/04 08:52:02;;;;;;;33.40;15.80;;;6.90;99.90;;;4.95;100.00;100832.66;10596947;27;20491;-81
2022/12/04 08:57:04;;;;;;;25.57;13.77;;;7.00;99.90;;;4.94;100.00;100831.81;10593576;27;20056;-82
2022/12/04 09:02:10;;;;;;;25.97;13.20;;;7.00;99.90;;;4.98;100.00;100840.34;10594107;27;20522;-81
2022/12/04 09:07:12;;;;;;;26.53;15.30;;;7.10;99.90;;;5.16;100.00;100843.34;10576264;27;20055;-81
2022/12/04 09:12:15;;;;;;;22.67;12.70;;;7.30;99.90;;;5.49;100.00;100832.84;10602053;27;20055;-81
2022/12/04 09:17:18;;;;;;;23.37;12.93;;;7.70;99.90;;;5.67;99.59;100824.47;10629068;27;20150;-81
2022/12/04 09:22:21;;;;;;;25.07;14.07;;;7.90;99.90;;;5.68;97.79;100812.94;10601764;27;20056;-82
2022/12/04 09:27:24;;;;;;;25.37;15.30;;;7.90;99.90;;;5.58;96.33;100816.31;10608366;27;20063;-82
2022/12/04 09:32:27;;;;;;;24.33;13.77;;;7.90;99.90;;;5.60;96.33;100814.41;10618408;27;20150;-82
2022/12/04 09:37:32;;;;;;;26.47;13.90;;;7.90;99.90;;;5.66;95.87;100817.50;10595233;27;20059;-82
2022/12/04 09:43:29;;;;;;;22.40;12.60;;;7.90;99.90;;;5.65;95.25;100803.50;10593785;27;20056;-82
2022/12/04 09:48:38;;;;;;;26.60;14.43;;;7.90;99.90;;;5.57;94.40;100797.97;10587612;27;20055;-82
2022/12/04 09:54:04;;;;;;;27.10;14.50;;;7.90;99.90;;;5.54;94.42;100790.31;10607870;27;20476;-82
2022/12/04 09:59:22;;;;;;;25.83;14.57;;;7.80;99.90;;;5.60;94.34;100777.47;10557786;28;20530;-81
2022/12/04 10:04:25;;;;;;;25.67;13.40;;;7.80;99.90;;;5.58;93.74;100768.03;10569371;28;20060;-81
2022/12/04 10:09:46;;;;;;;25.80;13.20;;;7.80;99.90;;;5.62;93.57;100765.00;10605219;27;20063;-82
2022/12/04 10:15:25;;;;;;;22.02;12.00;;;7.90;99.90;;;5.72;93.46;100759.00;10550637;28;20140;-80
2022/12/04 10:20:34;;;;;;;25.20;12.80;;;7.90;99.90;;;5.80;92.74;100746.03;10547324;28;20056;-80
2022/12/04 10:25:38;;;;;;;27.43;14.27;;;8.00;99.90;;;5.85;92.37;100728.03;10569670;28;20082;-81
2022/12/04 10:30:44;;;;;;;26.53;13.53;;;8.10;99.90;;;5.83;91.79;100740.53;10558721;28;20067;-82
2022/12/04 10:35:52;;;;;;;22.53;12.13;;;8.10;99.90;;;5.87;91.51;100731.38;10569655;28;20056;-80
2022/12/04 10:41:03;;;;;;;23.73;12.17;;;8.10;99.90;;;6.03;91.42;100728.38;10565112;28;20063;-80
2022/12/04 10:46:27;;;;;;;21.63;12.00;;;8.30;99.90;;;6.31;91.19;100735.69;10574413;28;20116;-80
2022/12/04 10:51:38;;;;;;;22.70;12.20;;;8.60;99.90;;;6.46;89.71;100716.91;10558738;28;20070;-80
2022/12/04 10:56:56;;;;;;;24.35;12.23;;;8.70;99.90;;;6.71;89.71;100709.41;10595710;27;20063;-80
2022/12/04 11:02:24;;;;;;;20.73;11.53;;;9.00;99.90;;;6.88;88.81;100696.56;10639101;27;20146;-82
2022/12/04 11:07:46;;;;;;;20.73;11.60;;;9.10;99.90;;;6.88;87.16;100680.72;10607678;27;20507;-80
2022/12/04 11:13:22;;;;;;;23.58;12.30;;;9.20;99.90;;;6.94;86.77;100675.75;10572073;27;20060;-81
2022/12/04 11:18:29;;;;;;;26.47;12.60;;;9.20;99.90;;;6.92;85.59;100669.75;10597178;27;20507;-81
2022/12/04 11:23:47;;;;;;;20.40;12.40;;;9.20;99.90;;;6.87;85.29;100663.19;10605256;27;20542;-80
2022/12/04 11:28:53;;;;;;;23.10;12.43;;;9.20;99.90;;;6.91;85.22;100643.47;10585767;27;20055;-81
2022/12/04 11:34:07;;;;;;;20.03;11.43;;;9.20;99.90;;;6.91;85.05;100644.31;10583612;27;20066;-81
2022/12/04 11:39:10;;;;;;;18.50;11.03;;;9.20;99.90;;;6.96;84.90;100643.91;10588861;27;20062;-80
2022/12/04 11:44:25;;;;;;;21.70;11.83;;;9.20;99.90;;;6.93;84.49;100629.16;10573346;28;20466;-81
2022/12/04 11:49:31;;;;;;;21.07;12.33;;;9.20;99.90;;;7.01;84.99;100644.34;10582153;27;20066;-81
2022/12/04 11:54:49;;;;;;;21.87;11.73;;;9.20;99.90;;;7.02;84.17;100626.66;10603031;27;20063;-81
2022/12/04 12:00:19;;;;;;;27.43;13.80;;;9.30;99.90;;;6.94;84.11;100617.63;10598637;27;20059;-81
2022/12/04 12:06:18;;;;;;;21.23;11.37;;;9.20;99.90;;;6.85;84.07;100617.59;10622006;27;20051;-81
2022/12/04 12:11:33;;;;;;;25.23;13.63;;;9.10;99.90;;;6.82;84.49;100608.13;10596214;27;20459;-83
2022/12/04 12:17:09;;;;;;;26.63;12.37;;;9.10;99.90;;;6.88;84.80;100607.59;10579923;27;20059;-81
2022/12/04 12:22:44;;;;;;;19.13;11.53;;;9.10;99.90;;;6.90;84.90;100604.81;10631011;27;20059;-81
2022/12/04 12:27:56;;;;;;;20.30;11.10;;;9.10;99.90;;;6.90;84.42;100615.41;10615628;27;20052;-80
2022/12/04 12:33:18;;;;;;;21.10;12.10;;;9.10;99.90;;;6.96;84.70;100606.94;10614256;27;20056;-81
2022/12/04 12:38:28;;;;;;;19.73;11.47;;;9.20;99.90;;;7.03;84.55;100610.69;10639817;27;20055;-81
2022/12/04 12:43:35;;;;;;;21.93;11.37;;;9.20;99.90;;;7.06;84.70;100607.78;10594096;27;20085;-81
2022/12/04 12:48:59;;;;;;;19.30;10.60;;;9.30;99.90;;;7.09;84.31;100596.13;10597262;27;20511;-82
2022/12/04 12:54:38;;;;;;;17.90;10.17;;;9.30;99.90;;;7.13;84.33;100600.13;10593135;27;20582;-81
2022/12/04 12:59:51;;;;;;;18.53;10.13;;;9.30;99.90;;;7.11;84.13;100600.28;10506686;27;20051;-80
2022/12/04 13:04:59;;;;;;;16.80;10.17;;;9.40;99.90;;;7.12;84.28;100585.25;10583289;27;20064;-81
2022/12/04 13:10:23;;;;;;;16.83;10.03;;;9.30;99.90;;;7.11;84.17;100592.34;10575398;27;20067;-81
2022/12/04 13:15:50;;;;;;;19.60;11.00;;;9.40;99.90;;;7.12;84.45;100574.69;10621313;27;20047;-81
2022/12/04 13:20:59;;;;;;;20.03;10.60;;;9.40;99.90;;;7.09;84.15;100573.16;10603811;27;20063;-80
2022/12/04 13:26:08;;;;;;;20.47;10.77;;;9.30;99.90;;;7.11;84.39;100583.59;10584839;27;20070;-81
2022/12/04 13:31:53;;;;;;;20.63;10.77;;;9.30;99.90;;;7.10;84.58;100590.69;10587151;27;20079;-81
2022/12/04 13:37:16;;;;;;;24.33;12.13;;;9.30;99.90;;;7.13;84.71;100594.84;10586705;27;20052;-81
2022/12/04 13:42:27;;;;;;;20.87;11.10;;;9.40;99.90;;;7.12;84.82;100594.00;10572161;27;20082;-81
2022/12/04 13:47:34;;;;;;;20.50;10.00;;;9.40;99.90;;;7.10;84.77;100603.91;10593017;27;20569;-81
2022/12/04 13:52:40;;;;;;;17.13;9.93;;;9.30;99.90;;;7.07;84.91;100605.97;10595545;27;20461;-81
2022/12/04 13:58:00;;;;;;;22.87;10.20;;;9.30;99.90;;;7.03;84.99;100609.88;10622087;27;20060;-81
2022/12/04 14:03:43;;;;;;;17.53;9.50;;;9.30;99.90;;;6.94;84.84;100609.69;10584323;27;20141;-81
2022/12/04 14:08:53;;;;;;;19.53;10.20;;;9.20;99.90;;;6.85;84.89;100614.97;10630830;27;20449;-81
2022/12/04 14:13:58;;;;;;;26.07;12.53;;;9.20;99.90;;;6.77;84.98;100606.84;10602839;27;20063;-81
2022/12/04 14:19:32;;;;;;;22.20;11.67;;;9.00;99.90;;;6.67;85.18;100615.56;10580987;27;20559;-81
2022/12/04 14:24:38;;;;;;;24.27;13.20;;;9.00;99.90;;;6.59;85.63;100618.03;10596811;27;20056;-81
2022/12/04 14:29:53;;;;;;;27.53;13.77;;;8.90;99.90;;;6.54;85.90;100630.81;10585961;27;20059;-80
2022/12/04 14:34:57;;;;;;;25.43;12.13;;;8.90;99.90;;;6.47;86.12;100627.00;10585734;27;20059;-80
2022/12/04 14:40:06;;;;;;;28.80;13.53;;;8.80;99.90;;;6.41;86.55;100625.72;10599488;27;20537;-80
2022/12/04 14:45:49;;;;;;;29.07;12.73;;;8.70;99.90;;;6.37;86.81;100628.78;10581257;27;20443;-81
2022/12/04 14:51:23;;;;;;;26.93;14.23;;;8.70;99.90;;;6.31;87.31;100635.41;10603848;27;20151;-80
2022/12/04 14:56:47;;;;;;;40.90;17.93;;;8.60;99.90;;;6.27;87.56;100630.50;10616115;27;20060;-81
2022/12/04 15:01:53;;;;;;;36.47;16.30;;;8.60;99.90;;;6.26;87.83;100636.75;10570972;27;20067;-80
2022/12/04 15:06:57;;;;;;;29.53;13.53;;;8.50;99.90;;;6.25;88.17;100629.81;10574782;27;20057;-81
2022/12/04 15:12:35;;;;;;;32.67;15.50;;;8.60;99.90;;;6.25;88.22;100640.38;10594958;27;20060;-81
2022/12/04 15:17:38;;;;;;;31.50;14.37;;;8.50;99.90;;;6.23;88.46;100648.38;10586906;27;20332;-81
2022/12/04 15:22:42;;;;;;;22.53;11.80;;;8.50;99.90;;;6.23;88.57;100643.09;10604551;27;20325;-81
2022/12/04 15:27:52;;;;;;;27.53;13.07;;;8.50;99.90;;;6.24;88.50;100649.22;10584723;27;20492;-81
2022/12/04 15:32:55;;;;;;;26.30;13.10;;;8.50;99.90;;;6.22;88.76;100645.88;10602468;27;20051;-81
2022/12/04 15:37:58;;;;;;;35.73;15.70;;;8.50;99.90;;;6.23;88.79;100647.56;10584527;27;20507;-82
2022/12/04 15:43:16;;;;;;;36.23;16.03;;;8.50;99.90;;;6.21;89.00;100631.03;10585889;27;20063;-81
2022/12/04 15:48:29;;;;;;;38.43;17.27;;;8.50;99.90;;;6.20;89.41;100645.19;10594991;27;20108;-82
2022/12/04 15:53:38;;;;;;;59.13;24.80;;;8.50;99.90;;;6.20;89.50;100650.47;10599554;27;20131;-81
2022/12/04 15:58:58;;;;;;;47.97;22.17;;;8.50;99.90;;;6.20;89.77;100653.09;10608457;27;20469;-82
2022/12/04 16:04:01;;;;;;;38.13;18.03;;;8.50;99.90;;;6.16;89.82;100653.34;10573637;27;20086;-80
2022/12/04 16:09:16;;;;;;;36.63;18.27;;;8.50;99.90;;;6.13;90.31;100648.34;10591855;27;20059;-81
2022/12/04 16:14:19;;;;;;;37.53;20.13;;;8.40;99.90;;;6.12;90.43;100657.22;10610498;27;20101;-82
2022/12/04 16:19:38;;;;;;;44.30;23.13;;;8.40;99.90;;;6.12;90.64;100661.66;10604410;27;20060;-82
2022/12/04 16:24:41;;;;;;;34.37;18.83;;;8.40;99.90;;;6.10;91.17;100659.13;10592988;27;20059;-83
2022/12/04 16:29:45;;;;;;;34.60;20.03;;;8.40;99.90;;;6.09;91.20;100654.84;10587275;27;20067;-80
2022/12/04 16:34:48;;;;;;;44.30;23.33;;;8.40;99.90;;;6.07;91.46;100663.84;10603593;27;20074;-83
2022/12/04 16:39:51;;;;;;;31.13;17.33;;;8.40;99.90;;;6.03;91.80;100659.78;10597602;27;20064;-81
2022/12/04 16:44:54;;;;;;;35.23;18.53;;;8.30;99.90;;;5.99;91.60;100656.53;10595084;27;20062;-80
2022/12/04 16:49:58;;;;;;;39.10;18.53;;;8.30;99.90;;;5.96;91.82;100651.53;10605606;27;20056;-80
2022/12/04 16:55:01;;;;;;;34.60;18.60;;;8.30;99.90;;;5.92;91.99;100663.31;10595852;27;20461;-80
2022/12/04 17:00:15;;;;;;;29.73;15.63;;;8.30;99.90;;;5.88;92.03;100664.50;10588731;27;20052;-80
2022/12/04 17:05:26;;;;;;;31.77;16.90;;;8.20;99.90;;;5.84;92.26;100658.63;10602605;27;20064;-80
2022/12/04 17:10:29;;;;;;;51.10;21.83;;;8.10;99.90;;;5.81;92.35;100658.88;10595994;27;20063;-79
2022/12/04 17:15:31;;;;;;;53.30;23.47;;;8.10;99.90;;;5.77;92.51;100654.84;10598162;27;20132;-80
2022/12/04 17:20:34;;;;;;;45.43;20.97;;;8.10;99.90;;;5.74;92.71;100655.06;10588180;27;20062;-80
2022/12/04 17:25:39;;;;;;;42.90;20.40;;;8.00;99.90;;;5.72;93.04;100654.38;10595902;27;20059;-80
2022/12/04 17:30:45;;;;;;;55.20;24.97;;;8.00;99.90;;;5.68;93.12;100662.66;10626266;27;20139;-80
2022/12/04 17:35:52;;;;;;;52.20;24.07;;;8.00;99.90;;;5.61;93.20;100663.16;10630648;27;20134;-80
2022/12/04 17:41:03;;;;;;;45.17;20.27;;;7.90;99.90;;;5.59;93.66;100667.72;10622711;27;20500;-80
2022/12/04 17:46:13;;;;;;;49.50;25.08;;;7.90;99.90;;;5.56;94.11;100662.69;10586129;27;20063;-80
2022/12/04 17:51:21;;;;;;;43.37;23.20;;;7.90;99.90;;;5.56;94.38;100665.31;10580166;28;20060;-80
2022/12/04 17:56:25;;;;;;;61.30;31.17;;;7.90;99.90;;;5.58;94.51;100666.03;10591682;27;20055;-80
2022/12/04 18:01:29;;;;;;;60.83;28.70;;;7.90;99.90;;;5.60;94.88;100665.91;10607978;27;20171;-80
2022/12/04 18:06:35;;;;;;;29.43;16.63;;;7.90;99.90;;;5.59;95.07;100665.06;10628863;27;20152;-80
2022/12/04 18:11:41;;;;;;;30.90;15.40;;;7.90;99.90;;;5.59;95.28;100670.34;10577404;28;20088;-80
2022/12/04 18:16:51;;;;;;;36.27;17.73;;;7.90;99.90;;;5.61;95.38;100667.59;10594020;27;20048;-80
2022/12/04 18:21:54;;;;;;;46.03;22.77;;;7.90;99.90;;;5.59;95.48;100678.25;10585227;27;20539;-80
2022/12/04 18:26:57;;;;;;;28.27;16.50;;;7.90;99.90;;;5.57;95.79;100674.06;10611792;27;20055;-80
2022/12/04 18:32:00;;;;;;;51.80;24.13;;;7.90;99.90;;;5.52;96.02;100687.63;10611130;27;20503;-80
2022/12/04 18:37:06;;;;;;;38.57;20.10;;;7.80;99.90;;;5.48;96.19;100680.91;10612186;27;20056;-80
2022/12/04 18:42:09;;;;;;;39.03;21.47;;;7.80;99.90;;;5.46;96.73;100690.75;10611247;27;20109;-79
2022/12/04 18:47:11;;;;;;;36.73;19.80;;;7.70;99.90;;;5.45;96.82;100688.22;10561697;28;20526;-80
2022/12/04 18:52:14;;;;;;;34.70;18.37;;;7.70;99.90;;;5.44;97.03;100686.56;10574331;27;20068;-80
2022/12/04 18:57:17;;;;;;;35.93;18.47;;;7.70;99.90;;;5.43;97.28;100692.78;10587013;27;20060;-80
2022/12/04 19:02:20;;;;;;;28.73;16.10;;;7.70;99.90;;;5.42;97.52;100691.97;10603021;27;20442;-80
2022/12/04 19:07:23;;;;;;;35.83;19.10;;;7.70;99.90;;;5.39;97.59;100686.91;10607574;27;20493;-80
2022/12/04 19:12:26;;;;;;;40.07;19.40;;;7.70;99.90;;;5.38;97.68;100682.63;10593633;27;20140;-80
2022/12/04 19:17:29;;;;;;;38.17;18.73;;;7.70;99.90;;;5.35;97.77;100682.88;10576502;28;20067;-80
2022/12/04 19:22:32;;;;;;;32.70;17.17;;;7.60;99.90;;;5.34;98.14;100686.47;10584545;28;20060;-80
2022/12/04 19:27:35;;;;;;;26.03;14.20;;;7.60;99.90;;;5.35;98.35;100691.63;10564730;27;20056;-80
2022/12/04 19:32:37;;;;;;;22.60;12.20;;;7.60;99.90;;;5.37;98.36;100688.84;10635026;27;20463;-80
2022/12/04 19:37:41;;;;;;;26.20;13.53;;;7.60;99.90;;;5.36;98.44;100687.19;10608512;27;20146;-80
2022/12/04 19:42:49;;;;;;;24.37;13.60;;;7.60;99.90;;;5.37;98.18;100694.13;10609514;27;20476;-80
2022/12/04 19:47:52;;;;;;;23.97;13.07;;;7.60;99.90;;;5.38;98.40;100693.16;10593276;27;20405;-80
2022/12/04 19:52:55;;;;;;;24.23;12.73;;;7.60;99.90;;;5.38;98.41;100693.16;10566727;28;20068;-80
2022/12/04 19:58:00;;;;;;;24.37;12.07;;;7.60;99.90;;;5.39;98.34;100700.09;10593460;27;20064;-80
2022/12/04 20:03:03;;;;;;;21.53;12.23;;;7.60;99.90;;;5.38;98.32;100696.63;10608685;27;20055;-80
2022/12/04 20:08:06;;;;;;;25.80;13.33;;;7.60;99.90;;;5.40;98.14;100707.06;10601511;27;20055;-80
2022/12/04 20:13:08;;;;;;;23.43;12.77;;;7.60;99.90;;;5.37;98.34;100710.75;10585541;27;20491;-80
2022/12/04 20:18:11;;;;;;;24.30;12.93;;;7.60;99.90;;;5.34;98.50;100704.91;10614790;27;20520;-80
2022/12/04 20:23:14;;;;;;;25.20;14.50;;;7.60;99.90;;;5.33;98.52;100700.59;10585478;27;20068;-80
2022/12/04 20:28:18;;;;;;;24.87;12.73;;;7.60;99.90;;;5.31;98.55;100708.63;10609254;27;20511;-80
2022/12/04 20:33:20;;;;;;;22.97;12.93;;;7.60;99.90;;;5.31;98.74;100718.31;10595001;27;20097;-80
2022/12/04 20:38:23;;;;;;;27.13;13.60;;;7.60;99.90;;;5.27;98.83;100712.44;10607931;27;20514;-80
2022/12/04 20:43:26;;;;;;;26.07;14.20;;;7.50;99.90;;;5.22;98.82;100717.25;10595806;27;20139;-80
2022/12/04 20:48:29;;;;;;;32.87;15.63;;;7.50;99.90;;;5.18;99.11;100733.44;10622133;27;20059;-80
2022/12/04 20:53:32;;;;;;;33.87;15.40;;;7.40;99.90;;;5.12;99.17;100723.38;10613066;27;20047;-80
2022/12/04 20:58:35;;;;;;;30.57;15.33;;;7.40;99.90;;;5.07;99.41;100724.56;10615811;27;20086;-80
2022/12/04 21:03:38;;;;;;;28.63;15.53;;;7.40;99.90;;;5.03;99.56;100720.47;10591992;27;20113;-80
2022/12/04 21:08:55;;;;;;;28.43;14.53;;;7.30;99.90;;;4.99;99.74;100726.13;10590234;27;20064;-80
2022/12/04 21:19:22;;;;;;;29.07;15.50;;;7.30;99.90;;;4.94;100.00;100713.31;10586421;27;20052;-80
2022/12/04 21:24:26;;;;;;;26.17;14.23;;;7.20;99.90;;;4.92;100.00;100723.13;10571740;28;20542;-80
2022/12/04 21:29:29;;;;;;;27.10;14.97;;;7.20;99.90;;;4.92;100.00;100720.50;10556743;28;20431;-80